Minerva, Iowa
Current Conditions -  °F | °C
As of 3:53 AM on Thursday 23 Oct 2014 (Local Time) from KMIW Reporting Station
Light Rain Light Rain  
Wind Chill: 47°   Ceiling: 8000
Heat Index: 49°   Visibility: 7mi
Dew Point: 45°   Wind: 6mph
Humidity: 86%   Direction: 150°SSE
Pressure: 30.08"   Gusts: NA
Location:  42.1247°N, 93.0244°W
Report Text: KMIW 230853Z AUTO 15005KT 7SM -RA FEW065 BKN080 OVC095 09/07 A3008 RMK AO2 RAB24 SLP187 P0001 60001 T00940072 56010
Loading
Personal Weather Stations






























Interactive Weather Map
Tropical Storm Tracking
New forecast layout! Learn more

10-Day Weather Forecast

Advertisements
Track Severe Weather on mobile